createdAt,value
2022-09-28T00:00:47.840Z,96828.63
2022-09-28T00:03:14.772Z,96825.06
2022-09-28T00:05:41.788Z,96822.66
2022-09-28T00:08:08.789Z,96830.84
2022-09-28T00:10:35.724Z,96823.75
2022-09-28T00:13:03.041Z,96824.56
2022-09-28T00:15:29.998Z,96830.84
2022-09-28T00:17:56.939Z,96827.31
2022-09-28T00:20:23.868Z,96825.66
2022-09-28T00:22:50.819Z,96816.63
2022-09-28T00:25:17.850Z,96822.94
2022-09-28T00:27:50.288Z,96815.81
2022-09-28T00:30:17.309Z,96820.47
2022-09-28T00:32:44.272Z,96816.09
2022-09-28T00:35:11.366Z,96814.78
2022-09-28T00:37:38.409Z,96808.50
2022-09-28T00:40:05.896Z,96811.50
2022-09-28T00:42:32.841Z,96815.06
2022-09-28T00:44:59.882Z,96818.63
2022-09-28T00:47:47.342Z,96827.13
2022-09-28T00:50:31.379Z,96817.28
2022-09-28T00:53:09.761Z,96816.19
2022-09-28T00:55:58.432Z,96818.13
2022-09-28T00:58:27.855Z,96816.19
2022-09-28T01:00:58.424Z,96822.44
2022-09-28T01:03:26.214Z,96812.94
2022-09-28T01:05:53.453Z,96803.91
2022-09-28T01:08:42.974Z,96811.28
2022-09-28T01:11:28.875Z,96814.03
2022-09-28T01:14:14.876Z,96817.84
2022-09-28T01:17:18.627Z,96821.72
2022-09-28T01:20:25.718Z,96821.19
2022-09-28T01:23:42.182Z,96823.41
2022-09-28T01:26:21.998Z,96822.59
2022-09-28T01:28:49.426Z,96829.97
2022-09-28T01:31:16.673Z,96823.97
2022-09-28T01:33:46.680Z,96828.34
2022-09-28T01:36:19.988Z,96821.78
2022-09-28T01:38:48.889Z,96822.06
2022-09-28T01:41:18.036Z,96833.00
2022-09-28T01:43:50.811Z,96830.28
2022-09-28T01:46:20.599Z,96833.00
2022-09-28T01:48:56.523Z,96834.91
2022-09-28T01:51:32.870Z,96826.72
2022-09-28T01:54:02.075Z,96813.84
2022-09-28T01:56:40.618Z,96816.88
2022-09-28T01:59:11.135Z,96817.69
2022-09-28T02:01:40.903Z,96832.50
2022-09-28T02:04:29.401Z,96829.75
2022-09-28T02:07:15.428Z,96837.16
2022-09-28T02:10:10.175Z,96832.25
2022-09-28T02:12:53.028Z,96836.09
2022-09-28T02:15:51.906Z,96840.75
2022-09-28T02:18:18.850Z,96838.31
2022-09-28T02:20:53.716Z,96846.50
2022-09-28T02:23:21.513Z,96841.03
2022-09-28T02:25:51.993Z,96837.47
2022-09-28T02:28:19.173Z,96831.19
2022-09-28T02:30:46.100Z,96837.47
2022-09-28T02:33:16.618Z,96838.31
2022-09-28T02:35:43.599Z,96827.34
2022-09-28T02:38:11.506Z,96833.66
2022-09-28T02:40:38.624Z,96832.84
2022-09-28T02:43:25.153Z,96830.38
2022-09-28T02:46:08.708Z,96835.84
2022-09-28T02:48:43.868Z,96844.34
2022-09-28T02:51:41.171Z,96834.53
2022-09-28T02:54:12.645Z,96844.63
2022-09-28T02:56:55.630Z,96838.66
2022-09-28T02:59:57.358Z,96842.50
2022-09-28T03:02:32.778Z,96845.50
2022-09-28T03:05:21.118Z,96838.41
2022-09-28T03:08:00.693Z,96841.13
2022-09-28T03:10:33.271Z,96829.69
2022-09-28T03:13:00.250Z,96838.41
2022-09-28T03:15:29.410Z,96832.13
2022-09-28T03:17:57.465Z,96843.06
2022-09-28T03:20:24.999Z,96845.00
2022-09-28T03:23:12.395Z,96850.16
2022-09-28T03:25:38.958Z,96849.34
2022-09-28T03:28:05.945Z,96846.09
2022-09-28T03:30:32.858Z,96853.47
2022-09-28T03:33:00.626Z,96848.00
2022-09-28T03:35:27.560Z,96844.47
2022-09-28T03:37:56.189Z,96848.00
2022-09-28T03:40:23.242Z,96850.22
2022-09-28T03:42:50.239Z,96847.47
2022-09-28T03:45:17.135Z,96845.06
2022-09-28T03:47:47.258Z,96859.00
2022-09-28T03:50:14.500Z,96858.19
2022-09-28T03:52:41.538Z,96852.72
2022-09-28T03:55:08.898Z,96856.53
2022-09-28T03:57:35.867Z,96854.94
2022-09-28T04:00:04.592Z,96858.47
2022-09-28T04:02:31.599Z,96854.94
2022-09-28T04:04:58.582Z,96861.50
2022-09-28T04:07:30.233Z,96847.84
2022-09-28T04:09:57.923Z,96860.41
2022-09-28T04:12:24.955Z,96853.81
2022-09-28T04:14:51.905Z,96859.28
2022-09-28T04:17:18.905Z,96857.66
2022-09-28T04:19:45.947Z,96858.78
2022-09-28T04:22:12.857Z,96857.13
2022-09-28T04:24:39.987Z,96862.06
2022-09-28T04:27:25.624Z,96859.63
2022-09-28T04:29:52.562Z,96859.91
2022-09-28T04:32:19.481Z,96858.28
2022-09-28T04:34:46.442Z,96847.34
2022-09-28T04:37:13.355Z,96845.75
2022-09-28T04:39:44.969Z,96848.75
2022-09-28T04:42:14.482Z,96848.75
2022-09-28T04:44:41.410Z,96847.94
2022-09-28T04:47:08.404Z,96850.66
2022-09-28T04:49:38.604Z,96849.81
2022-09-28T04:52:06.011Z,96849.81
2022-09-28T04:54:32.963Z,96855.84
2022-09-28T04:56:59.971Z,96845.75
2022-09-28T04:59:26.946Z,96846.53
2022-09-28T05:01:54.392Z,96841.06
2022-09-28T05:04:25.823Z,96847.34
2022-09-28T05:06:53.196Z,96836.41
2022-09-28T05:09:20.162Z,96848.47
2022-09-28T05:11:49.182Z,96850.38
2022-09-28T05:14:16.683Z,96847.94
2022-09-28T05:16:43.671Z,96847.34
2022-09-28T05:19:10.928Z,96848.47
2022-09-28T05:21:37.943Z,96852.31
2022-09-28T05:24:07.832Z,96856.97
2022-09-28T05:26:35.076Z,96859.97
2022-09-28T05:29:02.068Z,96857.53
2022-09-28T05:31:29.258Z,96856.72
2022-09-28T05:33:56.259Z,96857.00
2022-09-28T05:36:24.160Z,96861.66
2022-09-28T05:38:51.325Z,96868.75
2022-09-28T05:41:18.301Z,96869.84
2022-09-28T05:43:45.932Z,96872.03
2022-09-28T05:46:13.036Z,96870.91
2022-09-28T05:48:39.981Z,96859.97
2022-09-28T05:51:06.948Z,96863.25
2022-09-28T05:53:36.885Z,96866.78
2022-09-28T05:56:03.891Z,96871.44
2022-09-28T05:58:30.882Z,96867.06
2022-09-28T06:00:58.122Z,96877.19
2022-09-28T06:03:25.215Z,96871.72
2022-09-28T06:05:52.250Z,96875.84
2022-09-28T06:08:19.489Z,96872.31
2022-09-28T06:10:46.468Z,96879.16
2022-09-28T06:13:13.528Z,96875.63
2022-09-28T06:15:42.092Z,96883.00
2022-09-28T06:18:16.128Z,96881.38
2022-09-28T06:20:43.119Z,96874.25
2022-09-28T06:23:10.612Z,96878.09
2022-09-28T06:25:37.860Z,96872.63
2022-09-28T06:28:06.616Z,96862.50
2022-09-28T06:30:34.801Z,96854.31
2022-09-28T06:33:02.213Z,96841.47
2022-09-28T06:35:30.703Z,96845.56
2022-09-28T06:37:58.467Z,96846.34
2022-09-28T06:40:25.571Z,96850.44
2022-09-28T06:43:02.885Z,96856.72
2022-09-28T06:45:30.437Z,96852.06
2022-09-28T06:47:58.714Z,96858.38
2022-09-28T06:50:26.914Z,96848.53
2022-09-28T06:52:54.563Z,96848.53
2022-09-28T06:55:22.009Z,96845.78
2022-09-28T06:57:57.278Z,96842.53
2022-09-28T07:00:24.223Z,96855.38
2022-09-28T07:02:51.154Z,96846.66
2022-09-28T07:05:19.476Z,96860.59
2022-09-28T07:07:46.468Z,96849.94
2022-09-28T07:10:13.574Z,96865.81
2022-09-28T07:12:40.859Z,96870.19
2022-09-28T07:15:09.291Z,96863.09
2022-09-28T07:17:50.077Z,96872.94
2022-09-28T07:20:21.681Z,96860.88
2022-09-28T07:22:53.702Z,96868.78
2022-09-28T07:25:21.149Z,96858.41
2022-09-28T07:27:48.082Z,96855.69
2022-09-28T07:30:15.207Z,96857.28
2022-09-28T07:32:42.610Z,96849.63
2022-09-28T07:35:10.299Z,96855.91
2022-09-28T07:37:37.290Z,96857.53
2022-09-28T07:40:23.617Z,96856.72
2022-09-28T07:42:50.924Z,96852.91
2022-09-28T07:45:18.140Z,96845.78
2022-09-28T07:47:46.110Z,96855.09
2022-09-28T07:50:13.548Z,96848.00
2022-09-28T07:52:40.485Z,96853.75
2022-09-28T07:55:08.054Z,96845.56
2022-09-28T07:57:35.639Z,96848.56
2022-09-28T08:00:04.804Z,96852.13
2022-09-28T08:02:32.622Z,96854.03
2022-09-28T08:05:00.042Z,96850.22
2022-09-28T08:07:27.002Z,96854.28
2022-09-28T08:09:54.009Z,96846.63
2022-09-28T08:12:21.365Z,96848.22
2022-09-28T08:14:48.596Z,96851.50
2022-09-28T08:17:15.979Z,96844.13
2022-09-28T08:20:01.529Z,96844.63
2022-09-28T08:22:32.404Z,96842.72
2022-09-28T08:24:59.342Z,96847.06
2022-09-28T08:27:26.327Z,96847.94
2022-09-28T08:29:53.227Z,96842.47
2022-09-28T08:32:20.408Z,96839.72
2022-09-28T08:34:47.401Z,96846.84
2022-09-28T08:37:14.395Z,96838.63
2022-09-28T08:39:41.350Z,96844.09
2022-09-28T08:42:13.951Z,96830.44
2022-09-28T08:44:48.422Z,96821.41
2022-09-28T08:47:40.597Z,96828.53
2022-09-28T08:50:08.117Z,96833.97
2022-09-28T08:52:38.416Z,96825.78
2022-09-28T08:55:16.500Z,96840.28
2022-09-28T08:58:13.882Z,96835.91
2022-09-28T09:00:47.949Z,96840.28
2022-09-28T09:03:16.868Z,96838.63
2022-09-28T09:06:01.640Z,96833.97
2022-09-28T09:08:43.434Z,96838.63
2022-09-28T09:11:18.147Z,96843.78
2022-09-28T09:13:50.671Z,96849.25
2022-09-28T09:16:59.999Z,96845.75
2022-09-28T09:20:09.153Z,96846.53
2022-09-28T09:22:40.911Z,96853.94
2022-09-28T09:25:28.554Z,96853.94
2022-09-28T09:28:04.021Z,96855.84
2022-09-28T09:30:35.753Z,96858.59
2022-09-28T09:33:24.942Z,96853.94
2022-09-28T09:36:07.137Z,96855.03
2022-09-28T09:38:41.573Z,96862.13
2022-09-28T09:41:41.843Z,96845.75
2022-09-28T09:44:14.512Z,96850.38
2022-09-28T09:46:54.201Z,96851.19
2022-09-28T09:49:34.529Z,96852.81
2022-09-28T09:52:15.308Z,96845.44
2022-09-28T09:54:48.248Z,96847.34
2022-09-28T09:57:42.711Z,96833.69
2022-09-28T10:00:13.396Z,96840.78
2022-09-28T10:02:40.533Z,96839.97
2022-09-28T10:05:28.058Z,96834.22
2022-09-28T10:08:20.976Z,96828.75
2022-09-28T10:11:08.730Z,96825.19
2022-09-28T10:13:35.689Z,96828.47
2022-09-28T10:16:02.774Z,96830.38
2022-09-28T10:18:30.021Z,96822.19
2022-09-28T10:20:57.014Z,96825.75
2022-09-28T10:23:31.844Z,96823.00
2022-09-28T10:26:02.598Z,96824.91
2022-09-28T10:29:01.979Z,96814.50
2022-09-28T10:31:45.581Z,96828.16
2022-09-28T10:34:17.313Z,96822.69
2022-09-28T10:36:51.853Z,96827.06
2022-09-28T10:39:54.237Z,96816.94
2022-09-28T10:42:23.285Z,96801.38
2022-09-28T10:44:52.986Z,96807.34
2022-09-28T10:47:20.637Z,96805.72
2022-09-28T10:49:49.276Z,96796.41
2022-09-28T10:52:38.076Z,96796.41
2022-09-28T10:55:32.470Z,96791.47
2022-09-28T10:58:00.089Z,96783.28
2022-09-28T11:00:30.771Z,96773.97
2022-09-28T11:02:57.814Z,96773.16
2022-09-28T11:05:28.020Z,96771.25
2022-09-28T11:07:56.146Z,96773.66
2022-09-28T11:10:26.557Z,96767.38
2022-09-28T11:12:53.733Z,96761.91
2022-09-28T11:15:31.224Z,96763.53
2022-09-28T11:18:24.309Z,96754.25
2022-09-28T11:20:51.243Z,96757.50
2022-09-28T11:23:24.524Z,96747.69
2022-09-28T11:25:59.473Z,96753.38
2022-09-28T11:28:31.664Z,96750.63
2022-09-28T11:30:59.434Z,96740.81
2022-09-28T11:33:30.206Z,96749.53
2022-09-28T11:36:01.892Z,96753.09
2022-09-28T11:38:54.787Z,96746.50
2022-09-28T11:41:43.174Z,96750.03
2022-09-28T11:44:21.905Z,96747.31
2022-09-28T11:47:04.073Z,96739.91
2022-09-28T11:49:35.465Z,96736.38
2022-09-28T11:52:06.343Z,96742.66
2022-09-28T11:54:40.722Z,96737.19
2022-09-28T11:57:12.786Z,96733.34
2022-09-28T11:59:45.074Z,96727.88
2022-09-28T12:02:22.621Z,96719.69
2022-09-28T12:05:09.944Z,96713.13
2022-09-28T12:08:08.068Z,96715.03
2022-09-28T12:10:49.730Z,96716.94
2022-09-28T12:13:22.946Z,96719.41
2022-09-28T12:16:38.471Z,96714.75
2022-09-28T12:18:57.653Z,96714.75
2022-09-28T12:21:30.717Z,96720.22
2022-09-28T12:24:05.273Z,96725.38
2022-09-28T12:26:52.457Z,96721.00
2022-09-28T12:29:23.412Z,96714.75
2022-09-28T12:32:21.465Z,96708.16
2022-09-28T12:34:48.353Z,96710.88
2022-09-28T12:37:43.860Z,96705.41
2022-09-28T12:40:35.217Z,96709.78
2022-09-28T12:43:19.508Z,96698.84
2022-09-28T12:46:13.768Z,96705.94
2022-09-28T12:51:54.906Z,96693.31
2022-09-28T12:54:42.832Z,96689.75
2022-09-28T12:57:35.513Z,96699.59
2022-09-28T13:00:24.779Z,96699.28
2022-09-28T13:03:33.332Z,96692.72
2022-09-28T13:06:06.324Z,96700.91
2022-09-28T13:08:36.154Z,96695.44
2022-09-28T13:11:07.026Z,96697.09
2022-09-28T13:13:56.498Z,96688.06
2022-09-28T13:16:42.203Z,96688.06
2022-09-28T13:19:17.115Z,96681.78
2022-09-28T13:21:49.163Z,96688.34
2022-09-28T13:24:32.791Z,96690.28
2022-09-28T13:27:06.929Z,96686.75
2022-09-28T13:29:35.228Z,96686.75
2022-09-28T13:32:02.546Z,96687.84
2022-09-28T13:34:32.485Z,96687.03
2022-09-28T13:37:17.589Z,96686.22
2022-09-28T13:39:44.456Z,96688.13
2022-09-28T13:42:13.262Z,96687.31
2022-09-28T13:44:52.446Z,96692.78
2022-09-28T13:47:47.310Z,96679.09
2022-09-28T13:50:33.479Z,96688.44
2022-09-28T13:53:06.393Z,96682.97
2022-09-28T13:55:54.247Z,96663.84
2022-09-28T13:58:28.629Z,96671.22
2022-09-28T14:01:08.478Z,96666.03
2022-09-28T14:03:57.532Z,96674.25
2022-09-28T14:06:32.178Z,96662.47
2022-09-28T14:08:59.175Z,96667.13
2022-09-28T14:11:35.162Z,96653.47
2022-09-28T14:14:08.811Z,96648.00
2022-09-28T14:16:36.450Z,96644.44
2022-09-28T14:19:19.375Z,96649.13
2022-09-28T14:22:28.274Z,96651.88
2022-09-28T14:25:17.688Z,96650.22
2022-09-28T14:27:58.284Z,96642.03
2022-09-28T14:30:46.915Z,96646.69
2022-09-28T14:33:22.590Z,96642.31
2022-09-28T14:35:58.958Z,96634.94
2022-09-28T14:38:47.854Z,96640.41
2022-09-28T14:41:19.831Z,96638.47
2022-09-28T14:43:46.700Z,96638.75
2022-09-28T14:46:19.444Z,96638.75
2022-09-28T14:49:04.008Z,96637.13
2022-09-28T14:51:30.858Z,96641.50
2022-09-28T14:54:12.901Z,96632.47
2022-09-28T14:56:58.267Z,96631.66
2022-09-28T14:59:34.414Z,96630.06
2022-09-28T15:02:10.762Z,96622.66
2022-09-28T15:04:40.905Z,96620.72
2022-09-28T15:07:21.576Z,96628.13
2022-09-28T15:09:50.632Z,96621.84
2022-09-28T15:12:19.152Z,96623.78
2022-09-28T15:14:49.706Z,96614.75
2022-09-28T15:17:17.926Z,96615.56
2022-09-28T15:19:50.362Z,96623.78
2022-09-28T15:22:17.841Z,96626.50
2022-09-28T15:25:01.399Z,96621.84
2022-09-28T15:27:36.755Z,96630.06
2022-09-28T15:30:25.653Z,96624.59
2022-09-28T15:32:56.847Z,96622.97
2022-09-28T15:35:26.499Z,96627.31
2022-09-28T15:37:55.190Z,96622.97
2022-09-28T15:40:32.246Z,96625.69
2022-09-28T15:42:59.660Z,96627.59
2022-09-28T15:45:37.356Z,96629.53
2022-09-28T15:48:22.680Z,96635.00
2022-09-28T15:51:00.425Z,96626.78
2022-09-28T15:53:27.393Z,96636.34
2022-09-28T15:55:55.937Z,96639.28
2022-09-28T15:58:23.080Z,96635.06
2022-09-28T16:00:51.918Z,96633.56
2022-09-28T16:03:39.025Z,96629.38
2022-09-28T16:06:08.110Z,96630.63
2022-09-28T16:08:43.091Z,96629.44
2022-09-28T16:11:32.079Z,96640.81
2022-09-28T16:14:06.594Z,96634.44
2022-09-28T16:16:42.213Z,96649.34
2022-09-28T16:19:26.235Z,96661.84
2022-09-28T16:21:53.830Z,96672.75
2022-09-28T16:24:32.059Z,96666.69
2022-09-28T16:27:05.633Z,96689.31
2022-09-28T16:29:40.467Z,96696.09
2022-09-28T16:32:25.847Z,96688.41
2022-09-28T16:35:16.728Z,96694.41
2022-09-28T16:37:43.729Z,96707.78
2022-09-28T16:40:11.344Z,96694.41
2022-09-28T16:42:45.526Z,96687.00
2022-09-28T16:45:23.565Z,96682.31
2022-09-28T16:47:53.767Z,96680.13
2022-09-28T16:50:21.448Z,96670.81
2022-09-28T16:53:09.435Z,96668.25
2022-09-28T16:55:41.322Z,96672.63
2022-09-28T16:58:08.469Z,96670.72
2022-09-28T17:00:35.675Z,96652.84
2022-09-28T17:03:04.371Z,96662.69
2022-09-28T17:05:31.358Z,96661.28
2022-09-28T17:08:02.135Z,96668.88
2022-09-28T17:11:02.188Z,96674.88
2022-09-28T17:13:31.655Z,96667.19
2022-09-28T17:15:58.912Z,96667.19
2022-09-28T17:18:26.214Z,96681.38
2022-09-28T17:20:55.507Z,96673.97
2022-09-28T17:23:22.508Z,96679.16
2022-09-28T17:25:49.422Z,96681.59
2022-09-28T17:28:27.575Z,96679.66
2022-09-28T17:30:54.715Z,96690.31
2022-09-28T17:33:21.746Z,96687.59
2022-09-28T17:35:49.002Z,96694.38
2022-09-28T17:38:16.196Z,96690.53
2022-09-28T17:40:44.042Z,96691.34
2022-09-28T17:43:11.138Z,96692.66
2022-09-28T17:45:41.220Z,96694.00
2022-09-28T17:48:15.956Z,96689.25
2022-09-28T17:50:46.405Z,96691.91
2022-09-28T17:53:13.956Z,96691.56
2022-09-28T17:55:41.225Z,96694.03
2022-09-28T17:58:18.708Z,96699.50
2022-09-28T18:00:46.636Z,96698.38
2022-09-28T18:03:15.658Z,96706.59
2022-09-28T18:05:43.906Z,96704.69
2022-09-28T18:08:14.469Z,96709.63
2022-09-28T18:10:41.428Z,96713.19
2022-09-28T18:13:08.505Z,96713.69
2022-09-28T18:15:35.532Z,96713.41
2022-09-28T18:18:02.517Z,96720.22
2022-09-28T18:20:29.952Z,96719.09
2022-09-28T18:22:57.559Z,96727.75
2022-09-28T18:25:24.483Z,96744.59
2022-09-28T18:27:53.317Z,96757.13
2022-09-28T18:30:20.316Z,96745.25
2022-09-28T18:32:47.278Z,96742.69
2022-09-28T18:35:14.240Z,96750.31
2022-09-28T18:37:41.180Z,96735.50
2022-09-28T18:40:09.324Z,96740.34
2022-09-28T18:42:36.489Z,96741.41
2022-09-28T18:45:08.211Z,96744.84
2022-09-28T18:47:35.143Z,96750.03
2022-09-28T18:50:02.082Z,96760.38
2022-09-28T18:52:29.003Z,96764.94
2022-09-28T18:54:55.900Z,96752.66
2022-09-28T18:57:23.195Z,96757.97
2022-09-28T18:59:50.123Z,96762.72
2022-09-28T19:02:17.177Z,96758.16
2022-09-28T19:04:44.394Z,96757.44
2022-09-28T19:07:11.422Z,96774.50
2022-09-28T19:09:40.781Z,96778.97
2022-09-28T19:12:07.748Z,96780.34
2022-09-28T19:14:34.775Z,96770.31
2022-09-28T19:17:01.721Z,96785.13
2022-09-28T19:19:29.861Z,96784.63
2022-09-28T19:21:56.864Z,96782.97
2022-09-28T19:24:23.954Z,96773.72
2022-09-28T19:26:53.623Z,96784.16
2022-09-28T19:29:20.740Z,96784.97
2022-09-28T19:31:47.656Z,96789.63
2022-09-28T19:34:15.265Z,96784.75
2022-09-28T19:36:42.740Z,96783.13
2022-09-28T19:39:12.914Z,96778.25
2022-09-28T19:41:52.695Z,96780.50
2022-09-28T19:44:30.449Z,96787.91
2022-09-28T19:46:58.943Z,96804.13
2022-09-28T19:49:27.250Z,96800.59
2022-09-28T19:52:15.084Z,96793.78
2022-09-28T19:54:54.581Z,96805.84
2022-09-28T19:57:21.559Z,96808.06
2022-09-28T19:59:52.317Z,96818.50
2022-09-28T20:02:20.408Z,96822.69
2022-09-28T20:04:47.692Z,96819.13
2022-09-28T20:07:15.316Z,96810.09
2022-09-28T20:09:42.477Z,96810.38
2022-09-28T20:12:09.784Z,96807.13
2022-09-28T20:14:39.664Z,96820.00
2022-09-28T20:17:07.633Z,96812.91
2022-09-28T20:19:37.968Z,96810.44
2022-09-28T20:22:07.610Z,96813.50
2022-09-28T20:24:34.737Z,96818.47
2022-09-28T20:27:01.846Z,96834.91
2022-09-28T20:29:31.776Z,96839.88
2022-09-28T20:31:59.239Z,96839.34
2022-09-28T20:34:26.262Z,96841.25
2022-09-28T20:36:53.296Z,96832.56
2022-09-28T20:39:20.368Z,96839.13
2022-09-28T20:41:49.338Z,96852.00
2022-09-28T20:44:16.585Z,96854.22
2022-09-28T20:46:44.398Z,96847.13
2022-09-28T20:49:11.470Z,96843.59
2022-09-28T20:51:38.386Z,96843.88
2022-09-28T20:54:05.472Z,96863.03
2022-09-28T20:56:37.938Z,96858.66
2022-09-28T20:59:07.197Z,96874.59
2022-09-28T21:01:34.255Z,96865.84
2022-09-28T21:04:02.254Z,96874.88
2022-09-28T21:06:35.876Z,96877.63
2022-09-28T21:09:03.256Z,96856.03
2022-09-28T21:11:30.327Z,96846.19
2022-09-28T21:13:59.884Z,96867.56
2022-09-28T21:16:27.997Z,96865.63
2022-09-28T21:18:54.966Z,96873.84
2022-09-28T21:21:22.584Z,96880.75
2022-09-28T21:23:55.626Z,96889.25
2022-09-28T21:26:25.130Z,96883.75
2022-09-28T21:28:56.268Z,96887.59
2022-09-28T21:31:28.432Z,96878.88
2022-09-28T21:33:56.599Z,96889.03
2022-09-28T21:36:23.571Z,96889.03
2022-09-28T21:38:50.541Z,96885.47
2022-09-28T21:41:17.543Z,96894.78
2022-09-28T21:43:44.518Z,96887.66
2022-09-28T21:46:11.507Z,96886.06
2022-09-28T21:48:38.558Z,96894.28
2022-09-28T21:51:07.207Z,96895.38
2022-09-28T21:53:35.735Z,96904.69
2022-09-28T21:56:03.042Z,96920.31
2022-09-28T21:58:31.132Z,96922.53
2022-09-28T22:01:03.951Z,96909.13
2022-09-28T22:03:33.996Z,96918.97
2022-09-28T22:06:01.207Z,96917.63
2022-09-28T22:08:28.184Z,96919.56
2022-09-28T22:11:04.137Z,96916.31
2022-09-28T22:13:35.129Z,96915.22
2022-09-28T22:16:02.540Z,96917.13
2022-09-28T22:18:30.426Z,96921.78
2022-09-28T22:21:03.927Z,96930.00
2022-09-28T22:23:30.911Z,96927.25
2022-09-28T22:26:01.965Z,96931.09
2022-09-28T22:28:29.063Z,96943.16
2022-09-28T22:30:56.693Z,96939.59
2022-09-28T22:33:23.771Z,96944.25
2022-09-28T22:35:51.588Z,96937.16
2022-09-28T22:38:19.367Z,96945.38
2022-09-28T22:40:56.037Z,96941.81
2022-09-28T22:43:23.684Z,96943.75
2022-09-28T22:45:51.131Z,96955.75
2022-09-28T22:48:18.796Z,96959.59
2022-09-28T22:50:49.908Z,96967.00
2022-09-28T22:53:16.882Z,96957.16
2022-09-28T22:55:43.853Z,96968.94
2022-09-28T22:58:10.800Z,96960.72
2022-09-28T23:00:38.744Z,96961.81
2022-09-28T23:03:05.835Z,96956.34
2022-09-28T23:05:34.209Z,96959.09
2022-09-28T23:08:01.413Z,96960.19
2022-09-28T23:10:28.485Z,96967.31
2022-09-28T23:12:55.993Z,96966.47
2022-09-28T23:15:22.959Z,96974.97
2022-09-28T23:17:53.313Z,96979.63
2022-09-28T23:20:21.019Z,96983.50
2022-09-28T23:22:48.535Z,96983.50
2022-09-28T23:25:16.167Z,96972.81
2022-09-28T23:27:47.440Z,96973.94
2022-09-28T23:30:15.609Z,96962.97
2022-09-28T23:32:42.607Z,96962.97
2022-09-28T23:35:09.843Z,96961.34
2022-09-28T23:37:37.063Z,96961.34
2022-09-28T23:40:05.366Z,96957.78
2022-09-28T23:42:32.365Z,96960.53
2022-09-28T23:44:59.383Z,96958.09
2022-09-28T23:47:26.477Z,96972.59
2022-09-28T23:49:53.430Z,96971.78
2022-09-28T23:52:21.349Z,96976.44
2022-09-28T23:54:48.281Z,96977.53
2022-09-28T23:57:15.497Z,96988.47
2022-09-28T23:59:42.440Z,96986.03
